Dike, Iowa
Current Conditions -  °F | °C
As of 7:54 PM on Friday 31 Oct 2014 (Local Time) from KALO Reporting Station
Clear Clear  
Wind Chill: 29°   Ceiling: Unl
Heat Index: 29°   Visibility: 10mi
Dew Point: 19°   Wind: 3mph
Humidity: 67%   Direction: 360°N
Pressure: 30.45"   Gusts: NA
Location:  42.46°N, 92.63°W
Report Text: KALO 010054Z 36003KT 10SM CLR M02/M07 A3045 RMK AO2 SLP325 T10171072
Loading
Personal Weather Stations






























Interactive Weather Map
Tropical Storm Tracking
New forecast layout! Learn more

10-Day Weather Forecast

Advertisements
Track Severe Weather on mobile